Time;durP1;ratioP1;P1;durP2;ratioP2;P2;SDS_P1;SDS_P2;PMS_P1;PMS_P2;Temp;Humidity;BMP_temperature;BMP_pressure;BME280_temperature;BME280_humidity;BME280_pressure;Samples;Min_cycle;Max_cycle;Signal;HPM_P1;HPM_P2
2021/01/01 00:03:42;;;;;;;24.20;13.47;;;;;;;;;;10425060;28;20217;-66
2021/01/01 00:08:43;;;;;;;20.83;12.07;;;;;;;;;;10460585;28;20196;-68
2021/01/01 00:13:45;;;;;;;23.80;12.80;;;;;;;;;;10458254;28;20612;-67
2021/01/01 00:18:47;;;;;;;26.00;12.57;;;;;;;;;;10458338;28;20235;-67
2021/01/01 00:23:49;;;;;;;25.30;13.13;;;;;;;;;;10440231;28;20224;-67
2021/01/01 00:28:51;;;;;;;24.33;13.00;;;;;;;;;;10451277;28;20275;-68
2021/01/01 00:33:54;;;;;;;22.87;10.80;;;;;;;;;;10450322;28;20201;-67
2021/01/01 00:38:55;;;;;;;24.53;13.07;;;;;;;;;;10460629;28;20207;-66
2021/01/01 00:43:57;;;;;;;22.03;10.33;;;;;;;;;;10454341;28;20251;-67
2021/01/01 00:49:00;;;;;;;22.80;11.83;;;;;;;;;;10454603;28;20193;-69
2021/01/01 00:54:03;;;;;;;24.77;12.70;;;;;;;;;;10440317;28;20196;-68
2021/01/01 00:59:04;;;;;;;24.47;12.30;;;;;;;;;;10440567;28;20279;-68
2021/01/01 01:04:07;;;;;;;18.17;10.40;;;;;;;;;;10433641;28;20300;-68
2021/01/01 01:09:08;;;;;;;19.60;10.70;;;;;;;;;;10427104;28;20186;-68
2021/01/01 01:14:10;;;;;;;17.43;9.50;;;;;;;;;;10440887;28;20205;-67
2021/01/01 01:19:13;;;;;;;18.20;9.70;;;;;;;;;;10450106;28;20646;-69
2021/01/01 01:24:14;;;;;;;18.83;8.80;;;;;;;;;;10448229;28;20325;-67
2021/01/01 01:29:16;;;;;;;18.20;9.37;;;;;;;;;;10435783;28;20194;-68
2021/01/01 01:34:18;;;;;;;20.20;9.47;;;;;;;;;;10462289;28;20297;-67
2021/01/01 01:39:20;;;;;;;21.23;10.73;;;;;;;;;;10440888;28;20189;-68
2021/01/01 01:44:21;;;;;;;9.47;5.20;;;;;;;;;;10450265;28;20221;-67
2021/01/01 01:49:24;;;;;;;15.57;7.87;;;;;;;;;;10431891;28;20235;-68
2021/01/01 01:54:28;;;;;;;12.57;7.30;;;;;;;;;;10453616;28;20222;-68
2021/01/01 01:59:30;;;;;;;12.97;5.67;;;;;;;;;;10456560;28;20668;-68
2021/01/01 02:04:33;;;;;;;11.97;6.73;;;;;;;;;;10431554;28;20263;-69
2021/01/01 02:09:34;;;;;;;15.60;7.10;;;;;;;;;;10434031;28;20223;-68
2021/01/01 02:14:36;;;;;;;13.70;7.00;;;;;;;;;;10467712;28;20208;-68
2021/01/01 02:19:38;;;;;;;14.80;6.90;;;;;;;;;;10458264;28;20299;-68
2021/01/01 02:24:40;;;;;;;14.33;7.10;;;;;;;;;;10435957;28;20292;-68
2021/01/01 02:29:42;;;;;;;15.53;8.33;;;;;;;;;;10436014;28;20188;-68
2021/01/01 02:34:44;;;;;;;16.23;8.00;;;;;;;;;;10430230;28;20213;-68
2021/01/01 02:39:46;;;;;;;13.73;7.10;;;;;;;;;;10462669;28;20188;-67
2021/01/01 02:44:48;;;;;;;11.97;5.93;;;;;;;;;;10443477;28;20330;-68
2021/01/01 02:49:49;;;;;;;8.73;4.50;;;;;;;;;;10453464;28;20239;-68
2021/01/01 02:54:52;;;;;;;8.43;4.20;;;;;;;;;;10424735;28;20240;-68
2021/01/01 02:59:53;;;;;;;10.53;4.03;;;;;;;;;;10426423;28;20281;-67
2021/01/01 03:04:55;;;;;;;10.80;5.17;;;;;;;;;;10448339;28;20212;-68
2021/01/01 03:09:57;;;;;;;10.27;4.37;;;;;;;;;;10416597;28;20683;-69
2021/01/01 03:14:59;;;;;;;10.40;4.27;;;;;;;;;;10460481;28;20228;-67
2021/01/01 03:20:00;;;;;;;8.60;4.37;;;;;;;;;;10421510;28;20225;-68
2021/01/01 03:25:03;;;;;;;12.37;5.30;;;;;;;;;;10464386;28;20316;-68
2021/01/01 03:30:05;;;;;;;9.60;4.30;;;;;;;;;;10442391;28;20220;-68
2021/01/01 03:35:07;;;;;;;10.83;5.73;;;;;;;;;;10407515;28;20214;-68
2021/01/01 03:40:10;;;;;;;11.13;5.50;;;;;;;;;;10439576;28;20185;-68
2021/01/01 03:45:13;;;;;;;11.30;5.00;;;;;;;;;;10431291;28;20700;-66
2021/01/01 03:50:14;;;;;;;10.53;5.47;;;;;;;;;;10456429;28;20185;-68
2021/01/01 03:55:17;;;;;;;13.67;5.77;;;;;;;;;;10437722;28;20244;-68
2021/01/01 04:00:19;;;;;;;9.40;5.20;;;;;;;;;;10442425;28;20272;-69
2021/01/01 04:05:20;;;;;;;11.50;6.27;;;;;;;;;;10451415;28;20212;-68
2021/01/01 04:10:23;;;;;;;14.33;6.70;;;;;;;;;;10409669;28;20279;-68
2021/01/01 04:15:25;;;;;;;12.63;5.70;;;;;;;;;;10452975;28;20548;-68
2021/01/01 04:20:26;;;;;;;12.07;6.10;;;;;;;;;;10437551;28;20247;-67
2021/01/01 04:25:28;;;;;;;10.60;5.37;;;;;;;;;;10458607;28;20244;-68
2021/01/01 04:30:30;;;;;;;12.17;5.60;;;;;;;;;;10454673;28;20280;-69
2021/01/01 04:35:31;;;;;;;9.97;5.53;;;;;;;;;;10441134;28;20262;-68
2021/01/01 04:40:34;;;;;;;12.57;5.70;;;;;;;;;;10452434;28;20330;-68
2021/01/01 04:45:36;;;;;;;11.90;5.70;;;;;;;;;;10458383;28;20216;-68
2021/01/01 04:50:37;;;;;;;12.97;7.00;;;;;;;;;;10438205;28;20275;-67
2021/01/01 04:55:40;;;;;;;16.43;8.20;;;;;;;;;;10469580;28;20262;-68
2021/01/01 05:00:41;;;;;;;15.40;8.47;;;;;;;;;;10451552;28;20209;-68
2021/01/01 05:05:49;;;;;;;16.97;9.30;;;;;;;;;;10457391;28;20736;-67
2021/01/01 05:10:51;;;;;;;19.00;9.30;;;;;;;;;;10425931;28;20197;-67
2021/01/01 05:15:53;;;;;;;22.40;11.93;;;;;;;;;;10443620;28;20530;-68
2021/01/01 05:20:55;;;;;;;22.13;12.40;;;;;;;;;;10454549;28;20217;-68
2021/01/01 05:26:10;;;;;;;27.70;13.73;;;;;;;;;;10437614;28;20300;-67
2021/01/01 05:31:12;;;;;;;20.70;12.57;;;;;;;;;;10420353;28;20902;-67
2021/01/01 05:36:14;;;;;;;25.83;13.37;;;;;;;;;;10417884;28;20302;-68
2021/01/01 05:41:27;;;;;;;28.53;14.37;;;;;;;;;;10440286;28;20519;-69
2021/01/01 05:46:29;;;;;;;28.77;13.70;;;;;;;;;;10437660;28;20405;-67
2021/01/01 05:51:31;;;;;;;27.03;14.37;;;;;;;;;;10438000;28;20654;-67
2021/01/01 05:56:33;;;;;;;22.77;13.93;;;;;;;;;;10445918;28;20576;-69
2021/01/01 06:01:35;;;;;;;27.00;15.23;;;;;;;;;;10439079;28;20211;-67
2021/01/01 06:06:36;;;;;;;26.37;16.13;;;;;;;;;;10455224;28;20217;-67
2021/01/01 06:11:41;;;;;;;27.87;14.57;;;;;;;;;;10434015;28;20255;-67
2021/01/01 06:16:44;;;;;;;29.20;15.40;;;;;;;;;;10434557;28;20228;-67
2021/01/01 06:21:56;;;;;;;25.53;15.27;;;;;;;;;;10449720;28;20193;-68
2021/01/01 06:26:58;;;;;;;27.40;15.70;;;;;;;;;;10442315;28;20281;-67
2021/01/01 06:32:00;;;;;;;26.77;15.20;;;;;;;;;;10454908;28;20215;-67
2021/01/01 06:37:02;;;;;;;26.53;15.00;;;;;;;;;;10422241;28;20209;-67
2021/01/01 06:42:05;;;;;;;28.87;15.57;;;;;;;;;;10441885;28;20303;-67
2021/01/01 06:47:08;;;;;;;30.33;15.60;;;;;;;;;;10439946;28;20213;-67
2021/01/01 06:52:10;;;;;;;26.47;15.07;;;;;;;;;;10456703;28;20223;-68
2021/01/01 06:57:12;;;;;;;25.40;14.70;;;;;;;;;;10452161;28;20220;-67
2021/01/01 07:02:19;;;;;;;26.00;14.40;;;;;;;;;;10446366;28;20213;-68
2021/01/01 07:07:36;;;;;;;26.83;15.07;;;;;;;;;;10408686;28;20308;-68
2021/01/01 07:12:39;;;;;;;27.80;14.90;;;;;;;;;;10451316;28;20302;-68
2021/01/01 07:17:46;;;;;;;26.43;13.70;;;;;;;;;;10448252;28;20538;-67
2021/01/01 07:22:54;;;;;;;28.23;13.43;;;;;;;;;;10454871;28;20223;-68
2021/01/01 07:27:57;;;;;;;27.00;13.53;;;;;;;;;;10454794;28;20213;-68
2021/01/01 07:32:59;;;;;;;24.20;12.43;;;;;;;;;;10450357;28;20243;-68
2021/01/01 07:38:00;;;;;;;22.67;13.00;;;;;;;;;;10467945;28;20204;-69
2021/01/01 07:43:09;;;;;;;23.37;12.33;;;;;;;;;;10450654;28;20700;-69
2021/01/01 07:48:14;;;;;;;19.93;11.57;;;;;;;;;;10449763;28;20204;-68
2021/01/01 07:53:15;;;;;;;24.43;12.90;;;;;;;;;;10457088;28;20276;-68
2021/01/01 07:58:18;;;;;;;25.47;13.03;;;;;;;;;;10444676;28;20252;-69
2021/01/01 08:03:21;;;;;;;21.10;11.33;;;;;;;;;;10446385;28;20212;-67
2021/01/01 08:08:23;;;;;;;22.03;11.57;;;;;;;;;;10434668;28;20196;-68
2021/01/01 08:13:26;;;;;;;18.90;11.07;;;;;;;;;;10454216;28;20208;-68
2021/01/01 08:18:28;;;;;;;20.33;11.73;;;;;;;;;;10439812;28;20197;-68
2021/01/01 08:23:37;;;;;;;26.73;12.73;;;;;;;;;;10437992;28;20226;-68
2021/01/01 08:28:40;;;;;;;20.40;11.67;;;;;;;;;;10442849;28;20215;-68
2021/01/01 08:33:42;;;;;;;20.03;11.50;;;;;;;;;;10447743;28;20217;-69
2021/01/01 08:38:44;;;;;;;18.13;9.93;;;;;;;;;;10465613;28;20197;-68
2021/01/01 08:43:46;;;;;;;16.90;9.83;;;;;;;;;;10455517;28;20392;-68
2021/01/01 08:48:48;;;;;;;15.33;8.43;;;;;;;;;;10450871;28;20754;-67
2021/01/01 08:53:52;;;;;;;15.17;9.13;;;;;;;;;;10439284;28;20205;-67
2021/01/01 08:59:07;;;;;;;14.27;8.93;;;;;;;;;;10448731;28;20661;-68
2021/01/01 09:04:10;;;;;;;13.43;8.37;;;;;;;;;;10431056;28;20217;-68
2021/01/01 09:09:11;;;;;;;14.33;8.97;;;;;;;;;;10454121;28;20228;-68
2021/01/01 09:14:14;;;;;;;14.13;9.40;;;;;;;;;;10469537;28;20235;-67
2021/01/01 09:19:24;;;;;;;13.83;9.50;;;;;;;;;;10435639;28;20198;-68
2021/01/01 09:24:25;;;;;;;15.33;10.07;;;;;;;;;;10460982;28;20210;-68
2021/01/01 09:29:28;;;;;;;14.70;10.50;;;;;;;;;;10432250;28;20185;-68
2021/01/01 09:34:29;;;;;;;14.70;10.30;;;;;;;;;;10460613;28;20220;-69
2021/01/01 09:39:31;;;;;;;15.50;9.60;;;;;;;;;;10433927;28;20236;-67
2021/01/01 09:44:33;;;;;;;15.83;10.73;;;;;;;;;;10418978;28;20225;-68
2021/01/01 09:49:35;;;;;;;13.07;8.90;;;;;;;;;;10445273;28;20727;-69
2021/01/01 09:54:36;;;;;;;12.97;8.60;;;;;;;;;;10429567;28;20221;-67
2021/01/01 09:59:39;;;;;;;13.63;8.23;;;;;;;;;;10441436;28;20225;-68
2021/01/01 10:04:40;;;;;;;13.17;7.83;;;;;;;;;;10443141;28;20355;-67
2021/01/01 10:09:42;;;;;;;11.00;6.90;;;;;;;;;;10443436;28;20181;-68
2021/01/01 10:14:44;;;;;;;12.07;7.43;;;;;;;;;;10439067;28;20688;-68
2021/01/01 10:19:46;;;;;;;12.03;6.67;;;;;;;;;;10430080;28;20639;-66
2021/01/01 10:24:47;;;;;;;12.13;7.00;;;;;;;;;;10444346;28;20396;-68
2021/01/01 10:29:50;;;;;;;12.53;7.70;;;;;;;;;;10447178;28;20223;-67
2021/01/01 10:34:51;;;;;;;12.90;7.83;;;;;;;;;;10450424;28;20204;-69
2021/01/01 10:39:53;;;;;;;13.23;7.30;;;;;;;;;;10442140;28;20211;-69
2021/01/01 10:44:55;;;;;;;11.10;7.33;;;;;;;;;;10440878;28;20309;-69
2021/01/01 10:49:57;;;;;;;11.70;6.97;;;;;;;;;;10444580;28;20228;-70
2021/01/01 10:54:58;;;;;;;11.03;6.87;;;;;;;;;;10459228;28;20273;-69
2021/01/01 11:00:02;;;;;;;12.93;7.80;;;;;;;;;;10426347;28;20251;-68
2021/01/01 11:05:04;;;;;;;11.77;7.60;;;;;;;;;;10455307;28;20212;-67
2021/01/01 11:10:06;;;;;;;11.37;7.33;;;;;;;;;;10471718;28;20195;-67
2021/01/01 12:19:49;;;;;;;8.50;5.23;;;;;;;;;;10444537;28;20190;-69
2021/01/01 12:24:51;;;;;;;8.37;4.90;;;;;;;;;;10429445;28;20213;-69
2021/01/01 12:29:55;;;;;;;12.67;8.00;;;;;;;;;;10444221;28;20276;-67
2021/01/01 12:34:57;;;;;;;8.23;4.63;;;;;;;;;;10462094;28;20284;-68
2021/01/01 12:39:59;;;;;;;7.83;4.50;;;;;;;;;;10456839;28;20192;-69
2021/01/01 12:45:02;;;;;;;7.87;4.20;;;;;;;;;;10444624;28;20342;-69
2021/01/01 12:50:05;;;;;;;7.60;4.20;;;;;;;;;;10412334;28;20280;-69
2021/01/01 12:55:08;;;;;;;8.07;4.73;;;;;;;;;;10447784;28;20259;-69
2021/01/01 13:00:10;;;;;;;9.20;4.93;;;;;;;;;;10445334;28;20284;-69
2021/01/01 13:05:13;;;;;;;9.30;4.73;;;;;;;;;;10429443;28;20252;-68
2021/01/01 13:10:14;;;;;;;14.50;8.67;;;;;;;;;;10443555;28;20189;-70
2021/01/01 13:15:16;;;;;;;9.67;5.07;;;;;;;;;;10459746;28;20672;-70
2021/01/01 13:20:18;;;;;;;10.33;5.47;;;;;;;;;;10438030;28;20280;-69
2021/01/01 13:25:20;;;;;;;9.67;5.20;;;;;;;;;;10433764;28;20209;-69
2021/01/01 13:30:23;;;;;;;9.10;5.07;;;;;;;;;;10442184;28;20939;-69
2021/01/01 13:35:26;;;;;;;8.30;5.17;;;;;;;;;;10439591;28;20201;-70
2021/01/01 13:40:28;;;;;;;9.93;6.07;;;;;;;;;;10437652;28;20221;-69
2021/01/01 13:45:30;;;;;;;11.13;5.80;;;;;;;;;;10437152;28;20247;-69
2021/01/01 13:50:32;;;;;;;11.67;6.80;;;;;;;;;;10433962;28;20205;-67
2021/01/01 13:55:33;;;;;;;12.73;6.83;;;;;;;;;;10442291;28;20247;-69
2021/01/01 14:00:35;;;;;;;12.33;6.90;;;;;;;;;;10444181;28;20189;-69
2021/01/01 14:05:37;;;;;;;11.23;6.10;;;;;;;;;;10439976;28;20300;-67
2021/01/01 14:10:40;;;;;;;12.30;6.73;;;;;;;;;;10451139;28;20186;-67
2021/01/01 14:15:42;;;;;;;11.40;6.40;;;;;;;;;;10453581;28;20224;-70
2021/01/01 14:20:44;;;;;;;12.60;5.87;;;;;;;;;;10424217;28;20547;-69
2021/01/01 14:25:46;;;;;;;12.77;6.63;;;;;;;;;;10444334;28;20691;-69
2021/01/01 14:30:48;;;;;;;11.23;6.27;;;;;;;;;;10453394;28;20224;-69
2021/01/01 14:35:51;;;;;;;10.17;5.50;;;;;;;;;;10435163;28;20837;-69
2021/01/01 14:40:53;;;;;;;11.17;5.70;;;;;;;;;;10436705;28;20192;-69
2021/01/01 14:46:01;;;;;;;12.07;6.07;;;;;;;;;;10435652;28;20236;-68
2021/01/01 14:51:04;;;;;;;11.43;6.03;;;;;;;;;;10433386;28;20181;-69
2021/01/01 14:56:05;;;;;;;11.07;5.83;;;;;;;;;;10447117;28;20236;-70
2021/01/01 15:01:07;;;;;;;10.87;6.10;;;;;;;;;;10443666;28;20338;-69
2021/01/01 15:06:10;;;;;;;12.63;6.07;;;;;;;;;;10442099;28;20207;-69
2021/01/01 15:11:11;;;;;;;12.10;6.03;;;;;;;;;;10450233;28;20189;-69
2021/01/01 15:16:13;;;;;;;11.63;6.30;;;;;;;;;;10413588;28;20298;-67
2021/01/01 15:21:16;;;;;;;12.83;6.17;;;;;;;;;;10442818;28;20247;-68
2021/01/01 15:26:18;;;;;;;11.57;6.30;;;;;;;;;;10438051;28;20336;-69
2021/01/01 15:31:19;;;;;;;12.47;6.37;;;;;;;;;;10443778;28;20216;-68
2021/01/01 15:36:22;;;;;;;13.63;6.13;;;;;;;;;;10448997;28;20769;-69
2021/01/01 15:41:24;;;;;;;13.43;6.50;;;;;;;;;;10438495;28;20258;-67
2021/01/01 15:46:26;;;;;;;12.50;6.43;;;;;;;;;;10437065;28;20228;-68
2021/01/01 15:51:28;;;;;;;12.90;6.50;;;;;;;;;;10448958;28;20300;-68
2021/01/01 15:56:29;;;;;;;13.37;6.80;;;;;;;;;;10460837;28;20756;-68
2021/01/01 16:01:31;;;;;;;12.47;6.40;;;;;;;;;;10438896;28;20288;-69
2021/01/01 16:06:33;;;;;;;12.87;6.27;;;;;;;;;;10437428;28;20304;-70
2021/01/01 16:11:35;;;;;;;13.73;7.27;;;;;;;;;;10439991;28;20236;-68
2021/01/01 16:16:38;;;;;;;11.97;6.10;;;;;;;;;;10444464;28;20309;-70
2021/01/01 16:21:41;;;;;;;14.93;6.53;;;;;;;;;;10422228;28;20190;-69
2021/01/01 16:26:43;;;;;;;13.30;6.70;;;;;;;;;;10442945;28;20217;-69
2021/01/01 16:31:45;;;;;;;12.87;6.80;;;;;;;;;;10474613;28;20219;-68
2021/01/01 16:36:48;;;;;;;12.73;6.97;;;;;;;;;;10451451;28;20217;-69
2021/01/01 16:41:50;;;;;;;15.80;7.40;;;;;;;;;;10454769;28;20352;-69
2021/01/01 16:46:52;;;;;;;14.20;6.67;;;;;;;;;;10464985;28;20371;-69
2021/01/01 16:51:54;;;;;;;13.47;6.77;;;;;;;;;;10444578;28;20243;-68
2021/01/01 16:56:56;;;;;;;13.60;6.90;;;;;;;;;;10466181;28;20215;-69
2021/01/01 17:02:00;;;;;;;13.37;6.97;;;;;;;;;;10440083;28;20195;-68
2021/01/01 17:07:06;;;;;;;17.50;8.80;;;;;;;;;;10469749;28;20212;-68
2021/01/01 17:12:08;;;;;;;19.70;9.93;;;;;;;;;;10426740;28;20300;-69
2021/01/01 17:17:10;;;;;;;17.43;9.43;;;;;;;;;;10438552;28;20220;-71
2021/01/01 17:22:12;;;;;;;20.80;11.20;;;;;;;;;;10445576;28;20284;-67
2021/01/01 17:27:18;;;;;;;19.87;11.40;;;;;;;;;;10446924;28;20712;-70
2021/01/01 17:32:20;;;;;;;20.83;10.93;;;;;;;;;;10433950;28;20192;-67
2021/01/01 17:37:23;;;;;;;21.70;11.23;;;;;;;;;;10415756;28;20279;-68
2021/01/01 17:42:26;;;;;;;19.17;10.70;;;;;;;;;;10437148;28;20227;-70
2021/01/01 17:47:28;;;;;;;20.40;10.73;;;;;;;;;;10445536;28;20731;-68
2021/01/01 17:52:31;;;;;;;19.67;10.93;;;;;;;;;;10451651;28;20250;-68
2021/01/01 17:57:32;;;;;;;19.87;10.80;;;;;;;;;;10427931;28;20299;-68
2021/01/01 18:02:34;;;;;;;18.20;10.97;;;;;;;;;;10436354;28;20201;-69
2021/01/01 18:07:37;;;;;;;21.33;11.70;;;;;;;;;;10453802;28;20749;-68
2021/01/01 18:12:39;;;;;;;19.17;11.73;;;;;;;;;;10452655;28;20193;-68
2021/01/01 18:17:41;;;;;;;20.60;11.53;;;;;;;;;;10443509;28;20208;-68
2021/01/01 18:22:43;;;;;;;19.80;12.23;;;;;;;;;;10456119;28;20181;-67
2021/01/01 18:27:49;;;;;;;22.03;12.33;;;;;;;;;;10435793;28;20621;-68
2021/01/01 18:32:52;;;;;;;18.73;11.20;;;;;;;;;;10443078;28;20238;-68
2021/01/01 18:38:01;;;;;;;18.30;11.37;;;;;;;;;;10442198;28;20231;-69
2021/01/01 18:43:05;;;;;;;21.30;12.30;;;;;;;;;;10432064;28;20186;-67
2021/01/01 18:48:08;;;;;;;19.40;11.03;;;;;;;;;;10449543;28;20708;-66
2021/01/01 18:53:17;;;;;;;20.07;12.43;;;;;;;;;;10449675;28;20293;-67
2021/01/01 18:58:19;;;;;;;21.77;12.13;;;;;;;;;;10441749;28;20205;-67
2021/01/01 19:03:43;;;;;;;20.73;12.53;;;;;;;;;;10463883;28;20188;-67
2021/01/01 19:08:49;;;;;;;21.27;12.80;;;;;;;;;;10412299;28;20928;-67
2021/01/01 19:13:51;;;;;;;22.17;13.20;;;;;;;;;;10445957;28;20580;-67
2021/01/01 19:18:59;;;;;;;21.60;13.03;;;;;;;;;;10459397;28;20185;-67
2021/01/01 19:24:05;;;;;;;22.20;13.10;;;;;;;;;;10428322;28;20231;-67
2021/01/01 19:29:06;;;;;;;23.00;13.47;;;;;;;;;;10447711;28;20193;-68
2021/01/01 19:34:27;;;;;;;23.37;13.17;;;;;;;;;;10440592;28;20299;-67
2021/01/01 19:39:48;;;;;;;23.20;13.27;;;;;;;;;;10431913;28;20612;-69
2021/01/01 19:45:02;;;;;;;22.07;12.80;;;;;;;;;;10450321;28;20759;-67
2021/01/01 19:50:05;;;;;;;23.13;13.53;;;;;;;;;;10448460;28;20293;-68
2021/01/01 19:55:10;;;;;;;23.13;13.70;;;;;;;;;;10452435;28;20232;-68
2021/01/01 20:00:13;;;;;;;21.80;13.10;;;;;;;;;;10461262;28;20561;-67
2021/01/01 20:05:18;;;;;;;23.10;12.67;;;;;;;;;;10441506;28;20642;-69
2021/01/01 20:10:22;;;;;;;21.67;12.80;;;;;;;;;;10451991;28;20189;-69
2021/01/01 20:15:25;;;;;;;21.80;12.90;;;;;;;;;;10455435;28;20669;-68
2021/01/01 20:20:27;;;;;;;22.83;13.33;;;;;;;;;;10438988;28;20330;-68
2021/01/01 20:25:32;;;;;;;23.07;12.70;;;;;;;;;;10467380;28;20620;-68
2021/01/01 20:30:33;;;;;;;22.93;13.17;;;;;;;;;;10449389;28;20224;-67
2021/01/01 20:35:40;;;;;;;21.33;12.90;;;;;;;;;;10470853;28;20197;-68
2021/01/01 20:41:09;;;;;;;23.00;13.37;;;;;;;;;;10467278;28;20243;-69
2021/01/01 20:57:03;;;;;;;23.07;13.70;;;;;;;;;;10426380;28;20319;-69
2021/01/01 21:02:07;;;;;;;21.27;13.33;;;;;;;;;;10451237;28;20564;-69
2021/01/01 21:07:14;;;;;;;23.33;13.60;;;;;;;;;;10448405;28;20247;-69
2021/01/01 21:12:24;;;;;;;21.63;13.93;;;;;;;;;;10456838;28;20216;-69
2021/01/01 21:17:33;;;;;;;21.87;13.30;;;;;;;;;;10446014;28;20227;-68
2021/01/01 21:23:09;;;;;;;20.47;13.53;;;;;;;;;;10432062;28;20192;-70
2021/01/01 21:28:35;;;;;;;23.23;13.83;;;;;;;;;;10436591;28;20612;-68
2021/01/01 21:39:41;;;;;;;23.77;13.37;;;;;;;;;;10438076;28;20625;-68
2021/01/01 21:44:59;;;;;;;22.73;13.20;;;;;;;;;;10423507;28;20328;-70
2021/01/01 21:50:03;;;;;;;23.60;14.47;;;;;;;;;;10424106;28;20936;-70
2021/01/01 21:55:06;;;;;;;21.97;13.90;;;;;;;;;;10432568;28;20576;-69
2021/01/01 22:00:10;;;;;;;23.90;13.77;;;;;;;;;;10454589;28;20201;-70
2021/01/01 22:05:13;;;;;;;22.90;13.90;;;;;;;;;;10443979;28;20216;-69
2021/01/01 22:10:22;;;;;;;23.73;13.53;;;;;;;;;;10454970;28;20255;-69
2021/01/01 22:15:28;;;;;;;23.20;13.63;;;;;;;;;;10445259;28;20212;-69
2021/01/01 22:20:29;;;;;;;24.73;14.13;;;;;;;;;;10446477;28;20228;-69
2021/01/01 22:25:32;;;;;;;24.60;14.33;;;;;;;;;;10450601;28;20216;-68
2021/01/01 22:30:33;;;;;;;22.23;13.23;;;;;;;;;;10445114;28;20534;-69
2021/01/01 22:35:35;;;;;;;22.10;13.40;;;;;;;;;;10419608;28;20526;-69
2021/01/01 22:40:38;;;;;;;24.10;14.13;;;;;;;;;;10448563;28;20193;-69
2021/01/01 22:45:39;;;;;;;23.53;14.10;;;;;;;;;;10446971;28;20248;-69
2021/01/01 22:50:44;;;;;;;23.27;14.03;;;;;;;;;;10444216;28;20181;-69
2021/01/01 22:55:46;;;;;;;23.70;13.97;;;;;;;;;;10453642;28;20225;-69
2021/01/01 23:00:49;;;;;;;23.10;13.80;;;;;;;;;;10453030;28;20219;-69
2021/01/01 23:05:52;;;;;;;25.87;13.43;;;;;;;;;;10442911;28;20711;-69
2021/01/01 23:10:55;;;;;;;27.40;15.40;;;;;;;;;;10451526;28;20269;-68
2021/01/01 23:15:57;;;;;;;28.23;17.63;;;;;;;;;;10448952;28;20285;-70
2021/01/01 23:21:01;;;;;;;25.33;15.57;;;;;;;;;;10458133;28;20196;-68
2021/01/01 23:26:04;;;;;;;24.50;14.30;;;;;;;;;;10446729;28;20216;-68
2021/01/01 23:31:11;;;;;;;27.60;16.50;;;;;;;;;;10452009;28;20193;-68
2021/01/01 23:36:14;;;;;;;25.37;14.27;;;;;;;;;;10445214;28;20201;-70
2021/01/01 23:41:18;;;;;;;26.20;15.13;;;;;;;;;;10414987;28;20194;-68
2021/01/01 23:46:20;;;;;;;24.43;14.93;;;;;;;;;;10419500;28;20205;-68
2021/01/01 23:51:22;;;;;;;28.33;16.03;;;;;;;;;;10448731;28;20189;-68
2021/01/01 23:56:25;;;;;;;26.17;15.20;;;;;;;;;;10425514;28;20219;-67
